sensor_id;sensor_type;location;lat;lon;timestamp;temperature;humidity
68578;SHT31;61668;45.388;11.784;2022-11-15T00:01:51;10.52;79.97
68578;SHT31;61668;45.388;11.784;2022-11-15T00:04:16;10.49;79.99
68578;SHT31;61668;45.388;11.784;2022-11-15T00:06:42;10.46;80.00
68578;SHT31;61668;45.388;11.784;2022-11-15T00:09:08;10.43;80.01
68578;SHT31;61668;45.388;11.784;2022-11-15T00:11:33;10.40;80.04
68578;SHT31;61668;45.388;11.784;2022-11-15T00:13:58;10.36;79.97
68578;SHT31;61668;45.388;11.784;2022-11-15T00:16:27;10.34;80.10
68578;SHT31;61668;45.388;11.784;2022-11-15T00:18:53;10.31;80.18
68578;SHT31;61668;45.388;11.784;2022-11-15T00:21:18;10.29;80.30
68578;SHT31;61668;45.388;11.784;2022-11-15T00:23:43;10.28;80.24
68578;SHT31;61668;45.388;11.784;2022-11-15T00:26:10;10.28;80.10
68578;SHT31;61668;45.388;11.784;2022-11-15T00:28:38;10.28;80.03
68578;SHT31;61668;45.388;11.784;2022-11-15T00:31:06;10.28;80.11
68578;SHT31;61668;45.388;11.784;2022-11-15T00:33:34;10.26;80.03
68578;SHT31;61668;45.388;11.784;2022-11-15T00:36:00;10.20;80.08
68578;SHT31;61668;45.388;11.784;2022-11-15T00:38:34;10.15;80.22
68578;SHT31;61668;45.388;11.784;2022-11-15T00:41:02;10.13;80.29
68578;SHT31;61668;45.388;11.784;2022-11-15T00:43:29;10.12;80.31
68578;SHT31;61668;45.388;11.784;2022-11-15T00:45:55;10.11;80.30
68578;SHT31;61668;45.388;11.784;2022-11-15T00:48:21;10.08;80.30
68578;SHT31;61668;45.388;11.784;2022-11-15T00:50:46;10.05;80.30
68578;SHT31;61668;45.388;11.784;2022-11-15T00:53:13;10.02;80.42
68578;SHT31;61668;45.388;11.784;2022-11-15T00:55:39;10.01;80.50
68578;SHT31;61668;45.388;11.784;2022-11-15T00:58:04;10.02;80.37
68578;SHT31;61668;45.388;11.784;2022-11-15T01:00:30;10.01;80.26
68578;SHT31;61668;45.388;11.784;2022-11-15T01:02:55;9.99;80.21
68578;SHT31;61668;45.388;11.784;2022-11-15T01:05:21;9.96;80.21
68578;SHT31;61668;45.388;11.784;2022-11-15T01:07:49;9.94;80.34
68578;SHT31;61668;45.388;11.784;2022-11-15T01:10:17;9.90;80.34
68578;SHT31;61668;45.388;11.784;2022-11-15T01:12:43;9.87;80.30
68578;SHT31;61668;45.388;11.784;2022-11-15T01:15:09;9.82;80.38
68578;SHT31;61668;45.388;11.784;2022-11-15T01:17:34;9.78;80.42
68578;SHT31;61668;45.388;11.784;2022-11-15T01:20:00;9.74;80.42
68578;SHT31;61668;45.388;11.784;2022-11-15T01:22:25;9.72;80.41
68578;SHT31;61668;45.388;11.784;2022-11-15T01:24:51;9.70;80.41
68578;SHT31;61668;45.388;11.784;2022-11-15T01:27:17;9.67;80.53
68578;SHT31;61668;45.388;11.784;2022-11-15T01:29:42;9.61;80.56
68578;SHT31;61668;45.388;11.784;2022-11-15T01:32:08;9.56;80.70
68578;SHT31;61668;45.388;11.784;2022-11-15T01:34:33;9.52;80.89
68578;SHT31;61668;45.388;11.784;2022-11-15T01:36:59;9.48;81.08
68578;SHT31;61668;45.388;11.784;2022-11-15T01:39:25;9.45;81.26
68578;SHT31;61668;45.388;11.784;2022-11-15T01:41:51;9.43;81.31
68578;SHT31;61668;45.388;11.784;2022-11-15T01:47:13;9.37;81.40
68578;SHT31;61668;45.388;11.784;2022-11-15T01:49:45;9.34;81.42
68578;SHT31;61668;45.388;11.784;2022-11-15T01:52:22;9.30;81.42
68578;SHT31;61668;45.388;11.784;2022-11-15T01:54:53;9.26;81.43
68578;SHT31;61668;45.388;11.784;2022-11-15T01:57:22;9.22;81.57
68578;SHT31;61668;45.388;11.784;2022-11-15T01:59:48;9.21;81.55
68578;SHT31;61668;45.388;11.784;2022-11-15T02:02:13;9.20;81.53
68578;SHT31;61668;45.388;11.784;2022-11-15T02:04:43;9.16;81.47
68578;SHT31;61668;45.388;11.784;2022-11-15T02:07:12;9.14;81.50
68578;SHT31;61668;45.388;11.784;2022-11-15T02:09:42;9.11;81.49
68578;SHT31;61668;45.388;11.784;2022-11-15T02:12:09;9.09;81.56
68578;SHT31;61668;45.388;11.784;2022-11-15T02:14:44;9.06;81.60
68578;SHT31;61668;45.388;11.784;2022-11-15T02:29:07;8.83;81.99
68578;SHT31;61668;45.388;11.784;2022-11-15T02:34:51;8.75;82.08
68578;SHT31;61668;45.388;11.784;2022-11-15T02:37:44;8.69;82.13
68578;SHT31;61668;45.388;11.784;2022-11-15T02:40:42;8.65;82.25
68578;SHT31;61668;45.388;11.784;2022-11-15T02:43:21;8.63;82.38
68578;SHT31;61668;45.388;11.784;2022-11-15T02:46:17;8.62;82.39
68578;SHT31;61668;45.388;11.784;2022-11-15T02:49:09;8.63;82.34
68578;SHT31;61668;45.388;11.784;2022-11-15T02:51:37;8.63;82.31
68578;SHT31;61668;45.388;11.784;2022-11-15T02:54:04;8.62;82.30
68578;SHT31;61668;45.388;11.784;2022-11-15T02:56:29;8.63;82.29
68578;SHT31;61668;45.388;11.784;2022-11-15T03:11:35;8.52;82.47
68578;SHT31;61668;45.388;11.784;2022-11-15T03:14:24;8.45;82.55
68578;SHT31;61668;45.388;11.784;2022-11-15T03:19:51;8.38;82.70
68578;SHT31;61668;45.388;11.784;2022-11-15T03:22:20;8.37;82.66
68578;SHT31;61668;45.388;11.784;2022-11-15T03:24:50;8.37;82.60
68578;SHT31;61668;45.388;11.784;2022-11-15T03:27:20;8.35;82.60
68578;SHT31;61668;45.388;11.784;2022-11-15T03:29:51;8.32;82.60
68578;SHT31;61668;45.388;11.784;2022-11-15T03:32:30;8.30;82.60
68578;SHT31;61668;45.388;11.784;2022-11-15T03:35:03;8.28;82.57
68578;SHT31;61668;45.388;11.784;2022-11-15T03:37:34;8.26;82.57
68578;SHT31;61668;45.388;11.784;2022-11-15T03:40:22;8.23;82.55
68578;SHT31;61668;45.388;11.784;2022-11-15T03:43:09;8.21;82.57
68578;SHT31;61668;45.388;11.784;2022-11-15T03:46:06;8.19;82.65
68578;SHT31;61668;45.388;11.784;2022-11-15T03:51:53;8.13;83.02
68578;SHT31;61668;45.388;11.784;2022-11-15T03:54:22;8.13;83.26
68578;SHT31;61668;45.388;11.784;2022-11-15T03:56:48;8.12;83.39
68578;SHT31;61668;45.388;11.784;2022-11-15T03:59:13;8.12;83.47
68578;SHT31;61668;45.388;11.784;2022-11-15T04:01:39;8.12;83.53
68578;SHT31;61668;45.388;11.784;2022-11-15T04:04:04;8.13;83.66
68578;SHT31;61668;45.388;11.784;2022-11-15T04:06:29;8.16;83.72
68578;SHT31;61668;45.388;11.784;2022-11-15T04:08:55;8.17;83.78
68578;SHT31;61668;45.388;11.784;2022-11-15T04:11:20;8.19;83.94
68578;SHT31;61668;45.388;11.784;2022-11-15T04:13:46;8.23;84.02
68578;SHT31;61668;45.388;11.784;2022-11-15T04:16:11;8.30;84.16
68578;SHT31;61668;45.388;11.784;2022-11-15T04:18:37;8.36;84.13
68578;SHT31;61668;45.388;11.784;2022-11-15T04:21:02;8.41;84.10
68578;SHT31;61668;45.388;11.784;2022-11-15T04:23:47;8.46;84.11
68578;SHT31;61668;45.388;11.784;2022-11-15T04:26:32;8.51;84.20
68578;SHT31;61668;45.388;11.784;2022-11-15T04:28:58;8.58;84.22
68578;SHT31;61668;45.388;11.784;2022-11-15T04:31:42;8.65;84.12
68578;SHT31;61668;45.388;11.784;2022-11-15T04:34:08;8.68;84.01
68578;SHT31;61668;45.388;11.784;2022-11-15T04:36:33;8.70;84.02
68578;SHT31;61668;45.388;11.784;2022-11-15T04:39:17;8.71;84.01
68578;SHT31;61668;45.388;11.784;2022-11-15T04:41:43;8.70;83.96
68578;SHT31;61668;45.388;11.784;2022-11-15T04:44:09;8.71;84.00
68578;SHT31;61668;45.388;11.784;2022-11-15T04:46:34;8.73;83.94
68578;SHT31;61668;45.388;11.784;2022-11-15T04:49:00;8.75;83.86
68578;SHT31;61668;45.388;11.784;2022-11-15T04:51:25;8.78;83.94
68578;SHT31;61668;45.388;11.784;2022-11-15T04:53:51;8.82;83.90
68578;SHT31;61668;45.388;11.784;2022-11-15T04:56:16;8.89;83.97
68578;SHT31;61668;45.388;11.784;2022-11-15T04:58:42;8.96;83.85
68578;SHT31;61668;45.388;11.784;2022-11-15T05:01:11;8.99;83.79
68578;SHT31;61668;45.388;11.784;2022-11-15T05:03:42;9.02;83.61
68578;SHT31;61668;45.388;11.784;2022-11-15T05:06:26;8.98;83.40
68578;SHT31;61668;45.388;11.784;2022-11-15T05:08:52;8.94;83.40
68578;SHT31;61668;45.388;11.784;2022-11-15T05:11:18;8.91;83.35
68578;SHT31;61668;45.388;11.784;2022-11-15T05:13:45;8.90;83.37
68578;SHT31;61668;45.388;11.784;2022-11-15T05:16:11;8.91;83.38
68578;SHT31;61668;45.388;11.784;2022-11-15T05:18:36;8.93;83.33
68578;SHT31;61668;45.388;11.784;2022-11-15T05:21:06;8.93;83.34
68578;SHT31;61668;45.388;11.784;2022-11-15T05:23:34;8.96;83.25
68578;SHT31;61668;45.388;11.784;2022-11-15T05:26:00;8.95;83.14
68578;SHT31;61668;45.388;11.784;2022-11-15T05:28:28;8.94;83.06
68578;SHT31;61668;45.388;11.784;2022-11-15T05:30:59;8.93;83.14
68578;SHT31;61668;45.388;11.784;2022-11-15T05:33:30;8.95;83.11
68578;SHT31;61668;45.388;11.784;2022-11-15T05:36:18;8.98;83.02
68578;SHT31;61668;45.388;11.784;2022-11-15T05:38:59;8.98;83.08
68578;SHT31;61668;45.388;11.784;2022-11-15T05:41:37;8.98;83.12
68578;SHT31;61668;45.388;11.784;2022-11-15T05:44:18;8.98;83.18
68578;SHT31;61668;45.388;11.784;2022-11-15T05:46:47;8.98;83.12
68578;SHT31;61668;45.388;11.784;2022-11-15T05:49:15;8.98;82.95
68578;SHT31;61668;45.388;11.784;2022-11-15T05:51:43;8.98;82.90
68578;SHT31;61668;45.388;11.784;2022-11-15T05:54:11;8.97;82.93
68578;SHT31;61668;45.388;11.784;2022-11-15T05:56:36;8.99;82.84
68578;SHT31;61668;45.388;11.784;2022-11-15T05:59:03;8.98;82.76
68578;SHT31;61668;45.388;11.784;2022-11-15T06:01:29;8.96;82.74
68578;SHT31;61668;45.388;11.784;2022-11-15T06:03:55;8.91;82.72
68578;SHT31;61668;45.388;11.784;2022-11-15T06:06:20;8.87;82.62
68578;SHT31;61668;45.388;11.784;2022-11-15T06:08:46;8.80;82.71
68578;SHT31;61668;45.388;11.784;2022-11-15T06:11:12;8.76;82.65
68578;SHT31;61668;45.388;11.784;2022-11-15T06:13:38;8.71;82.68
68578;SHT31;61668;45.388;11.784;2022-11-15T06:16:04;8.69;82.68
68578;SHT31;61668;45.388;11.784;2022-11-15T06:18:34;8.66;82.68
68578;SHT31;61668;45.388;11.784;2022-11-15T06:21:00;8.65;82.80
68578;SHT31;61668;45.388;11.784;2022-11-15T06:23:27;8.63;82.81
68578;SHT31;61668;45.388;11.784;2022-11-15T06:25:53;8.63;82.83
68578;SHT31;61668;45.388;11.784;2022-11-15T06:28:22;8.63;82.72
68578;SHT31;61668;45.388;11.784;2022-11-15T06:30:48;8.66;82.88
68578;SHT31;61668;45.388;11.784;2022-11-15T06:33:13;8.70;82.81
68578;SHT31;61668;45.388;11.784;2022-11-15T06:35:39;8.70;82.77
68578;SHT31;61668;45.388;11.784;2022-11-15T06:38:05;8.66;82.51
68578;SHT31;61668;45.388;11.784;2022-11-15T06:40:34;8.59;82.76
68578;SHT31;61668;45.388;11.784;2022-11-15T06:43:01;8.60;83.04
68578;SHT31;61668;45.388;11.784;2022-11-15T06:45:28;8.58;82.91
68578;SHT31;61668;45.388;11.784;2022-11-15T06:47:54;8.57;82.89
68578;SHT31;61668;45.388;11.784;2022-11-15T06:50:19;8.57;82.93
68578;SHT31;61668;45.388;11.784;2022-11-15T06:52:45;8.61;82.94
68578;SHT31;61668;45.388;11.784;2022-11-15T06:55:11;8.65;82.93
68578;SHT31;61668;45.388;11.784;2022-11-15T06:57:36;8.67;82.80
68578;SHT31;61668;45.388;11.784;2022-11-15T07:00:03;8.70;83.07
68578;SHT31;61668;45.388;11.784;2022-11-15T07:02:30;8.71;83.14
68578;SHT31;61668;45.388;11.784;2022-11-15T07:04:56;8.76;83.10
68578;SHT31;61668;45.388;11.784;2022-11-15T07:07:21;8.82;83.04
68578;SHT31;61668;45.388;11.784;2022-11-15T07:09:47;8.86;83.03
68578;SHT31;61668;45.388;11.784;2022-11-15T07:12:12;8.90;82.87
68578;SHT31;61668;45.388;11.784;2022-11-15T07:14:38;8.93;82.86
68578;SHT31;61668;45.388;11.784;2022-11-15T07:17:04;8.97;82.86
68578;SHT31;61668;45.388;11.784;2022-11-15T07:19:30;8.99;82.78
68578;SHT31;61668;45.388;11.784;2022-11-15T07:21:56;8.98;82.69
68578;SHT31;61668;45.388;11.784;2022-11-15T07:24:21;8.98;82.78
68578;SHT31;61668;45.388;11.784;2022-11-15T07:26:47;8.99;82.86
68578;SHT31;61668;45.388;11.784;2022-11-15T07:29:12;8.99;82.61
68578;SHT31;61668;45.388;11.784;2022-11-15T07:31:38;8.99;82.26
68578;SHT31;61668;45.388;11.784;2022-11-15T07:34:04;8.99;82.37
68578;SHT31;61668;45.388;11.784;2022-11-15T07:36:29;8.98;82.03
68578;SHT31;61668;45.388;11.784;2022-11-15T07:38:55;8.97;82.37
68578;SHT31;61668;45.388;11.784;2022-11-15T07:41:20;8.97;82.41
68578;SHT31;61668;45.388;11.784;2022-11-15T07:43:46;8.94;82.29
68578;SHT31;61668;45.388;11.784;2022-11-15T07:46:12;8.93;82.30
68578;SHT31;61668;45.388;11.784;2022-11-15T07:48:38;8.94;82.36
68578;SHT31;61668;45.388;11.784;2022-11-15T07:51:05;8.98;82.24
68578;SHT31;61668;45.388;11.784;2022-11-15T07:53:31;9.07;82.19
68578;SHT31;61668;45.388;11.784;2022-11-15T07:55:57;9.14;82.20
68578;SHT31;61668;45.388;11.784;2022-11-15T07:58:22;9.23;82.27
68578;SHT31;61668;45.388;11.784;2022-11-15T08:00:48;9.29;82.12
68578;SHT31;61668;45.388;11.784;2022-11-15T08:03:14;9.35;81.97
68578;SHT31;61668;45.388;11.784;2022-11-15T08:05:42;9.38;81.76
68578;SHT31;61668;45.388;11.784;2022-11-15T08:08:10;9.38;81.61
68578;SHT31;61668;45.388;11.784;2022-11-15T08:10:36;9.38;81.55
68578;SHT31;61668;45.388;11.784;2022-11-15T08:13:03;9.41;81.46
68578;SHT31;61668;45.388;11.784;2022-11-15T08:15:32;9.46;81.57
68578;SHT31;61668;45.388;11.784;2022-11-15T08:18:00;9.52;81.48
68578;SHT31;61668;45.388;11.784;2022-11-15T08:20:29;9.60;81.57
68578;SHT31;61668;45.388;11.784;2022-11-15T08:22:56;9.66;81.72
68578;SHT31;61668;45.388;11.784;2022-11-15T08:25:23;9.73;81.66
68578;SHT31;61668;45.388;11.784;2022-11-15T08:27:55;9.78;81.64
68578;SHT31;61668;45.388;11.784;2022-11-15T08:30:23;9.81;81.58
68578;SHT31;61668;45.388;11.784;2022-11-15T08:32:49;9.85;81.79
68578;SHT31;61668;45.388;11.784;2022-11-15T08:35:17;9.91;81.63
68578;SHT31;61668;45.388;11.784;2022-11-15T08:37:44;9.97;81.74
68578;SHT31;61668;45.388;11.784;2022-11-15T08:40:10;10.04;81.63
68578;SHT31;61668;45.388;11.784;2022-11-15T08:42:36;10.08;81.93
68578;SHT31;61668;45.388;11.784;2022-11-15T08:45:01;10.19;81.95
68578;SHT31;61668;45.388;11.784;2022-11-15T08:47:28;10.26;81.65
68578;SHT31;61668;45.388;11.784;2022-11-15T08:49:54;10.32;81.63
68578;SHT31;61668;45.388;11.784;2022-11-15T08:52:20;10.32;81.47
68578;SHT31;61668;45.388;11.784;2022-11-15T08:54:45;10.33;81.60
68578;SHT31;61668;45.388;11.784;2022-11-15T08:57:11;10.39;81.61
68578;SHT31;61668;45.388;11.784;2022-11-15T08:59:37;10.44;81.50
68578;SHT31;61668;45.388;11.784;2022-11-15T09:02:03;10.46;81.36
68578;SHT31;61668;45.388;11.784;2022-11-15T09:04:29;10.45;80.91
68578;SHT31;61668;45.388;11.784;2022-11-15T09:06:55;10.47;81.14
68578;SHT31;61668;45.388;11.784;2022-11-15T09:09:21;10.48;81.07
68578;SHT31;61668;45.388;11.784;2022-11-15T09:11:46;10.50;80.98
68578;SHT31;61668;45.388;11.784;2022-11-15T09:14:12;10.51;80.90
68578;SHT31;61668;45.388;11.784;2022-11-15T09:16:39;10.51;80.92
68578;SHT31;61668;45.388;11.784;2022-11-15T09:19:05;10.53;80.76
68578;SHT31;61668;45.388;11.784;2022-11-15T09:21:31;10.53;80.66
68578;SHT31;61668;45.388;11.784;2022-11-15T09:23:57;10.55;80.66
68578;SHT31;61668;45.388;11.784;2022-11-15T09:26:23;10.56;80.70
68578;SHT31;61668;45.388;11.784;2022-11-15T09:28:49;10.56;80.78
68578;SHT31;61668;45.388;11.784;2022-11-15T09:31:15;10.53;80.68
68578;SHT31;61668;45.388;11.784;2022-11-15T09:33:43;10.50;80.52
68578;SHT31;61668;45.388;11.784;2022-11-15T09:36:09;10.49;80.81
68578;SHT31;61668;45.388;11.784;2022-11-15T09:38:35;10.51;80.89
68578;SHT31;61668;45.388;11.784;2022-11-15T09:49:00;10.49;80.97
68578;SHT31;61668;45.388;11.784;2022-11-15T09:51:32;10.53;81.19
68578;SHT31;61668;45.388;11.784;2022-11-15T09:57:04;10.64;81.03
68578;SHT31;61668;45.388;11.784;2022-11-15T10:05:47;10.88;81.06
68578;SHT31;61668;45.388;11.784;2022-11-15T10:11:22;11.15;80.67
68578;SHT31;61668;45.388;11.784;2022-11-15T10:13:52;11.24;80.70
68578;SHT31;61668;45.388;11.784;2022-11-15T10:22:08;11.54;80.05
68578;SHT31;61668;45.388;11.784;2022-11-15T10:24:43;11.57;79.76
68578;SHT31;61668;45.388;11.784;2022-11-15T10:27:11;11.62;79.90
68578;SHT31;61668;45.388;11.784;2022-11-15T10:29:47;11.69;79.74
68578;SHT31;61668;45.388;11.784;2022-11-15T10:32:17;11.73;79.52
68578;SHT31;61668;45.388;11.784;2022-11-15T10:34:45;11.78;79.79
68578;SHT31;61668;45.388;11.784;2022-11-15T10:37:13;11.86;79.68
68578;SHT31;61668;45.388;11.784;2022-11-15T10:39:39;11.91;79.79
68578;SHT31;61668;45.388;11.784;2022-11-15T10:42:47;11.97;79.64
68578;SHT31;61668;45.388;11.784;2022-11-15T10:44:55;12.02;79.29
68578;SHT31;61668;45.388;11.784;2022-11-15T10:47:25;12.07;79.17
68578;SHT31;61668;45.388;11.784;2022-11-15T10:49:58;12.14;79.23
68578;SHT31;61668;45.388;11.784;2022-11-15T10:52:31;12.23;79.12
68578;SHT31;61668;45.388;11.784;2022-11-15T10:55:02;12.32;79.08
68578;SHT31;61668;45.388;11.784;2022-11-15T10:57:50;12.40;79.01
68578;SHT31;61668;45.388;11.784;2022-11-15T11:03:08;12.49;78.39
68578;SHT31;61668;45.388;11.784;2022-11-15T11:06:11;12.52;77.86
68578;SHT31;61668;45.388;11.784;2022-11-15T11:09:01;12.52;77.90
68578;SHT31;61668;45.388;11.784;2022-11-15T11:11:46;12.54;77.96
68578;SHT31;61668;45.388;11.784;2022-11-15T11:14:25;12.59;77.93
68578;SHT31;61668;45.388;11.784;2022-11-15T11:28:36;12.93;77.82
68578;SHT31;61668;45.388;11.784;2022-11-15T11:34:15;12.93;77.28
68578;SHT31;61668;45.388;11.784;2022-11-15T11:37:21;12.85;77.05
68578;SHT31;61668;45.388;11.784;2022-11-15T11:46:28;12.72;77.03
68578;SHT31;61668;45.388;11.784;2022-11-15T11:49:06;12.69;77.40
68578;SHT31;61668;45.388;11.784;2022-11-15T11:51:43;12.69;77.52
68578;SHT31;61668;45.388;11.784;2022-11-15T11:56:55;12.74;77.23
68578;SHT31;61668;45.388;11.784;2022-11-15T12:05:07;12.61;77.40
68578;SHT31;61668;45.388;11.784;2022-11-15T12:07:52;12.64;77.41
68578;SHT31;61668;45.388;11.784;2022-11-15T12:10:28;12.66;77.52
68578;SHT31;61668;45.388;11.784;2022-11-15T12:13:00;12.69;77.66
68578;SHT31;61668;45.388;11.784;2022-11-15T12:15:36;12.74;77.69
68578;SHT31;61668;45.388;11.784;2022-11-15T12:18:08;12.77;77.71
68578;SHT31;61668;45.388;11.784;2022-11-15T12:20:40;12.78;77.79
68578;SHT31;61668;45.388;11.784;2022-11-15T12:23:20;12.80;78.13
68578;SHT31;61668;45.388;11.784;2022-11-15T12:26:34;12.84;77.89
68578;SHT31;61668;45.388;11.784;2022-11-15T12:29:58;12.87;77.88
68578;SHT31;61668;45.388;11.784;2022-11-15T12:32:22;12.91;77.97
68578;SHT31;61668;45.388;11.784;2022-11-15T12:34:56;12.94;77.84
68578;SHT31;61668;45.388;11.784;2022-11-15T12:48:20;13.11;77.54
68578;SHT31;61668;45.388;11.784;2022-11-15T12:56:36;13.12;77.33
68578;SHT31;61668;45.388;11.784;2022-11-15T12:58:55;13.11;77.28
68578;SHT31;61668;45.388;11.784;2022-11-15T13:04:11;13.10;77.33
68578;SHT31;61668;45.388;11.784;2022-11-15T13:14:43;13.09;77.10
68578;SHT31;61668;45.388;11.784;2022-11-15T13:19:45;13.02;77.30
68578;SHT31;61668;45.388;11.784;2022-11-15T13:22:14;12.97;77.43
68578;SHT31;61668;45.388;11.784;2022-11-15T13:24:59;12.93;77.71
68578;SHT31;61668;45.388;11.784;2022-11-15T13:27:26;12.93;78.05
68578;SHT31;61668;45.388;11.784;2022-11-15T13:29:52;12.94;78.21
68578;SHT31;61668;45.388;11.784;2022-11-15T13:32:18;12.92;78.11
68578;SHT31;61668;45.388;11.784;2022-11-15T13:34:45;12.88;78.22
68578;SHT31;61668;45.388;11.784;2022-11-15T13:39:45;12.80;78.73
68578;SHT31;61668;45.388;11.784;2022-11-15T13:42:20;12.77;78.99
68578;SHT31;61668;45.388;11.784;2022-11-15T13:45:03;12.75;79.05
68578;SHT31;61668;45.388;11.784;2022-11-15T13:47:30;12.74;79.09
68578;SHT31;61668;45.388;11.784;2022-11-15T13:49:57;12.69;79.06
68578;SHT31;61668;45.388;11.784;2022-11-15T13:52:30;12.70;79.33
68578;SHT31;61668;45.388;11.784;2022-11-15T14:05:33;12.72;79.69
68578;SHT31;61668;45.388;11.784;2022-11-15T14:08:03;12.66;79.68
68578;SHT31;61668;45.388;11.784;2022-11-15T14:10:48;12.58;79.55
68578;SHT31;61668;45.388;11.784;2022-11-15T14:13:58;12.54;79.79
68578;SHT31;61668;45.388;11.784;2022-11-15T14:19:04;12.52;79.93
68578;SHT31;61668;45.388;11.784;2022-11-15T14:21:32;12.49;79.95
68578;SHT31;61668;45.388;11.784;2022-11-15T14:24:17;12.47;80.10
68578;SHT31;61668;45.388;11.784;2022-11-15T14:26:45;12.45;80.07
68578;SHT31;61668;45.388;11.784;2022-11-15T14:29:27;12.40;80.19
68578;SHT31;61668;45.388;11.784;2022-11-15T14:32:05;12.36;80.38
68578;SHT31;61668;45.388;11.784;2022-11-15T14:34:45;12.34;80.44
68578;SHT31;61668;45.388;11.784;2022-11-15T14:37:33;12.34;80.52
68578;SHT31;61668;45.388;11.784;2022-11-15T14:40:00;12.33;80.51
68578;SHT31;61668;45.388;11.784;2022-11-15T14:42:31;12.33;80.51
68578;SHT31;61668;45.388;11.784;2022-11-15T14:44:57;12.33;80.53
68578;SHT31;61668;45.388;11.784;2022-11-15T14:47:23;12.35;80.72
68578;SHT31;61668;45.388;11.784;2022-11-15T14:49:49;12.37;80.80
68578;SHT31;61668;45.388;11.784;2022-11-15T14:52:35;12.39;80.75
68578;SHT31;61668;45.388;11.784;2022-11-15T14:55:01;12.38;80.75
68578;SHT31;61668;45.388;11.784;2022-11-15T14:57:58;12.37;80.81
68578;SHT31;61668;45.388;11.784;2022-11-15T15:00:24;12.33;80.91
68578;SHT31;61668;45.388;11.784;2022-11-15T15:02:51;12.35;81.09
68578;SHT31;61668;45.388;11.784;2022-11-15T15:05:32;12.37;81.03
68578;SHT31;61668;45.388;11.784;2022-11-15T15:08:06;12.39;81.06
68578;SHT31;61668;45.388;11.784;2022-11-15T15:10:33;12.40;81.03
68578;SHT31;61668;45.388;11.784;2022-11-15T15:13:12;12.42;81.13
68578;SHT31;61668;45.388;11.784;2022-11-15T15:15:42;12.45;81.09
68578;SHT31;61668;45.388;11.784;2022-11-15T15:18:07;12.48;81.00
68578;SHT31;61668;45.388;11.784;2022-11-15T15:20:34;12.52;80.89
68578;SHT31;61668;45.388;11.784;2022-11-15T15:23:02;12.51;80.76
68578;SHT31;61668;45.388;11.784;2022-11-15T15:25:32;12.49;80.61
68578;SHT31;61668;45.388;11.784;2022-11-15T15:28:00;12.45;80.77
68578;SHT31;61668;45.388;11.784;2022-11-15T15:30:27;12.44;80.88
68578;SHT31;61668;45.388;11.784;2022-11-15T15:32:54;12.42;80.95
68578;SHT31;61668;45.388;11.784;2022-11-15T15:35:21;12.42;80.93
68578;SHT31;61668;45.388;11.784;2022-11-15T15:37:47;12.41;81.00
68578;SHT31;61668;45.388;11.784;2022-11-15T15:40:21;12.40;80.91
68578;SHT31;61668;45.388;11.784;2022-11-15T15:42:49;12.36;80.90
68578;SHT31;61668;45.388;11.784;2022-11-15T15:45:15;12.34;80.94
68578;SHT31;61668;45.388;11.784;2022-11-15T15:47:43;12.33;81.04
68578;SHT31;61668;45.388;11.784;2022-11-15T15:52:44;12.30;81.14
68578;SHT31;61668;45.388;11.784;2022-11-15T15:55:09;12.30;81.22
68578;SHT31;61668;45.388;11.784;2022-11-15T15:57:35;12.27;81.22
68578;SHT31;61668;45.388;11.784;2022-11-15T16:00:02;12.21;81.34
68578;SHT31;61668;45.388;11.784;2022-11-15T16:02:29;12.16;81.42
68578;SHT31;61668;45.388;11.784;2022-11-15T16:04:55;12.10;81.50
68578;SHT31;61668;45.388;11.784;2022-11-15T16:07:21;12.06;81.60
68578;SHT31;61668;45.388;11.784;2022-11-15T16:09:50;12.06;81.67
68578;SHT31;61668;45.388;11.784;2022-11-15T16:12:25;12.04;81.63
68578;SHT31;61668;45.388;11.784;2022-11-15T16:14:52;12.04;81.70
68578;SHT31;61668;45.388;11.784;2022-11-15T16:17:18;12.04;81.72
68578;SHT31;61668;45.388;11.784;2022-11-15T16:19:51;12.06;81.78
68578;SHT31;61668;45.388;11.784;2022-11-15T16:22:17;12.08;81.81
68578;SHT31;61668;45.388;11.784;2022-11-15T16:24:43;12.09;81.88
68578;SHT31;61668;45.388;11.784;2022-11-15T16:27:15;12.09;81.83
68578;SHT31;61668;45.388;11.784;2022-11-15T16:29:43;12.05;81.69
68578;SHT31;61668;45.388;11.784;2022-11-15T16:32:09;11.98;81.68
68578;SHT31;61668;45.388;11.784;2022-11-15T16:34:35;11.93;81.72
68578;SHT31;61668;45.388;11.784;2022-11-15T16:37:00;11.92;81.79
68578;SHT31;61668;45.388;11.784;2022-11-15T16:39:26;11.90;81.74
68578;SHT31;61668;45.388;11.784;2022-11-15T16:41:55;11.88;81.77
68578;SHT31;61668;45.388;11.784;2022-11-15T16:44:24;11.86;81.84
68578;SHT31;61668;45.388;11.784;2022-11-15T16:46:50;11.90;82.11
68578;SHT31;61668;45.388;11.784;2022-11-15T16:49:17;11.94;82.09
68578;SHT31;61668;45.388;11.784;2022-11-15T16:51:45;11.95;82.06
68578;SHT31;61668;45.388;11.784;2022-11-15T16:54:12;11.96;82.11
68578;SHT31;61668;45.388;11.784;2022-11-15T16:56:39;11.95;82.10
68578;SHT31;61668;45.388;11.784;2022-11-15T16:59:05;11.95;82.07
68578;SHT31;61668;45.388;11.784;2022-11-15T17:01:33;11.93;82.00
68578;SHT31;61668;45.388;11.784;2022-11-15T17:04:01;11.91;82.00
68578;SHT31;61668;45.388;11.784;2022-11-15T17:06:37;11.89;82.00
68578;SHT31;61668;45.388;11.784;2022-11-15T17:09:05;11.86;82.02
68578;SHT31;61668;45.388;11.784;2022-11-15T17:11:32;11.83;82.00
68578;SHT31;61668;45.388;11.784;2022-11-15T17:13:58;11.82;82.18
68578;SHT31;61668;45.388;11.784;2022-11-15T17:16:24;11.82;82.26
68578;SHT31;61668;45.388;11.784;2022-11-15T17:18:50;11.86;82.32
68578;SHT31;61668;45.388;11.784;2022-11-15T17:21:17;11.87;82.18
68578;SHT31;61668;45.388;11.784;2022-11-15T17:23:45;11.86;82.15
68578;SHT31;61668;45.388;11.784;2022-11-15T17:26:12;11.80;82.13
68578;SHT31;61668;45.388;11.784;2022-11-15T17:28:40;11.75;82.28
68578;SHT31;61668;45.388;11.784;2022-11-15T17:31:09;11.72;82.33
68578;SHT31;61668;45.388;11.784;2022-11-15T17:33:37;11.70;82.34
68578;SHT31;61668;45.388;11.784;2022-11-15T17:36:05;11.68;82.32
68578;SHT31;61668;45.388;11.784;2022-11-15T17:38:35;11.67;82.34
68578;SHT31;61668;45.388;11.784;2022-11-15T17:41:04;11.65;82.38
68578;SHT31;61668;45.388;11.784;2022-11-15T17:43:34;11.65;82.44
68578;SHT31;61668;45.388;11.784;2022-11-15T17:46:03;11.67;82.53
68578;SHT31;61668;45.388;11.784;2022-11-15T17:48:35;11.71;82.59
68578;SHT31;61668;45.388;11.784;2022-11-15T17:51:01;11.78;82.70
68578;SHT31;61668;45.388;11.784;2022-11-15T17:53:33;11.83;82.61
68578;SHT31;61668;45.388;11.784;2022-11-15T17:56:05;11.91;82.64
68578;SHT31;61668;45.388;11.784;2022-11-15T17:58:40;11.96;82.53
68578;SHT31;61668;45.388;11.784;2022-11-15T18:03:34;12.01;82.30
68578;SHT31;61668;45.388;11.784;2022-11-15T18:06:02;12.02;82.14